createdAt,value
2022-10-30T00:13:02.104Z,90.3
2022-10-30T00:33:02.029Z,90.0
2022-10-30T00:53:02.066Z,90.5
2022-10-30T01:13:02.066Z,91.1
2022-10-30T01:33:01.999Z,91.3
2022-10-30T01:53:02.003Z,91.6
2022-10-30T02:13:02.023Z,91.3
2022-10-30T02:33:01.936Z,90.2
2022-10-30T02:53:01.958Z,89.9
2022-10-30T03:13:01.976Z,90.6
2022-10-30T03:33:01.896Z,90.1
2022-10-30T03:53:01.910Z,89.9
2022-10-30T04:13:01.929Z,90.8
2022-10-30T04:33:01.851Z,90.7
2022-10-30T04:53:01.872Z,89.4
2022-10-30T05:13:01.887Z,90.5
2022-10-30T05:33:01.901Z,89.7
2022-10-30T05:53:01.815Z,89.9
2022-10-30T06:13:01.855Z,91.1
2022-10-30T06:33:01.865Z,90.9
2022-10-30T06:53:01.771Z,90.9
2022-10-30T07:13:01.815Z,91.5
2022-10-30T07:33:01.800Z,91.2
2022-10-30T07:53:01.722Z,91.4
2022-10-30T08:13:01.806Z,91.0
2022-10-30T08:33:01.781Z,90.4
2022-10-30T08:53:01.678Z,90.3
2022-10-30T09:13:01.693Z,90.2
2022-10-30T09:33:01.717Z,89.7
2022-10-30T09:53:01.644Z,89.6
2022-10-30T10:13:01.661Z,90.2
2022-10-30T10:33:01.678Z,88.5
2022-10-30T10:53:01.632Z,87.1
2022-10-30T11:13:01.651Z,87.3
2022-10-30T11:33:01.556Z,84.4
2022-10-30T11:53:01.571Z,81.5
2022-10-30T12:13:01.508Z,80.5
2022-10-30T12:33:01.525Z,74.5
2022-10-30T12:53:01.451Z,72.9
2022-10-30T13:13:01.480Z,68.0
2022-10-30T13:33:01.408Z,71.5
2022-10-30T13:53:01.436Z,70.6
2022-10-30T14:13:01.363Z,74.2
2022-10-30T14:33:01.386Z,73.3
2022-10-30T14:53:01.320Z,76.2
2022-10-30T15:13:01.256Z,79.0
2022-10-30T15:33:01.326Z,81.0
2022-10-30T15:53:01.197Z,83.2
2022-10-30T16:13:01.225Z,84.3
2022-10-30T16:33:01.181Z,84.8
2022-10-30T16:53:01.176Z,86.5
2022-10-30T17:13:01.201Z,87.5
2022-10-30T17:33:01.125Z,87.9
2022-10-30T17:53:01.193Z,88.5
2022-10-30T18:13:01.104Z,88.5
2022-10-30T18:53:01.108Z,89.5
2022-10-30T19:13:01.044Z,90.0
2022-10-30T19:33:01.047Z,90.0
2022-10-30T19:53:01.065Z,89.7
2022-10-30T20:13:00.988Z,90.5
2022-10-30T20:33:01.033Z,89.9
2022-10-30T20:53:01.021Z,90.4
2022-10-30T21:13:01.112Z,91.0
2022-10-30T21:33:01.102Z,90.7
2022-10-30T21:53:01.012Z,91.0
2022-10-30T22:13:00.937Z,91.1
2022-10-30T22:33:00.975Z,91.1
2022-10-30T22:53:01.022Z,90.3
2022-10-30T23:13:00.869Z,89.4
2022-10-30T23:33:00.900Z,89.9
2022-10-30T23:53:00.802Z,90.1
